createdAt,value
2022-11-03T00:01:41.119Z,13.23
2022-11-03T00:04:12.974Z,13.90
2022-11-03T00:06:44.273Z,18.50
2022-11-03T00:09:14.617Z,12.00
2022-11-03T00:11:44.074Z,13.07
2022-11-03T00:14:13.509Z,15.97
2022-11-03T00:16:42.492Z,13.33
2022-11-03T00:19:12.009Z,16.97
2022-11-03T00:21:40.395Z,11.43
2022-11-03T00:24:10.617Z,16.00
2022-11-03T00:26:39.669Z,17.23
2022-11-03T00:29:10.395Z,11.00
2022-11-03T00:31:40.197Z,16.30
2022-11-03T00:34:09.256Z,9.57
2022-11-03T00:36:39.411Z,16.10
2022-11-03T00:39:09.436Z,15.00
2022-11-03T00:41:38.275Z,16.07
2022-11-03T00:44:07.099Z,19.53
2022-11-03T00:46:36.188Z,16.27
2022-11-03T00:49:06.104Z,11.73
2022-11-03T00:51:36.287Z,17.77
2022-11-03T00:54:07.407Z,14.60
2022-11-03T00:56:39.057Z,12.70
2022-11-03T00:59:09.122Z,17.07
2022-11-03T01:01:45.366Z,17.33
2022-11-03T01:04:34.653Z,15.47
2022-11-03T01:07:04.791Z,12.23
2022-11-03T01:09:37.036Z,16.27
2022-11-03T01:12:08.419Z,11.03
2022-11-03T01:14:38.904Z,13.00
2022-11-03T01:17:08.583Z,19.90
2022-11-03T01:19:37.641Z,12.67
2022-11-03T01:22:09.704Z,10.97
2022-11-03T01:24:41.534Z,12.93
2022-11-03T01:27:13.351Z,12.83
2022-11-03T01:29:41.804Z,14.70
2022-11-03T01:32:13.381Z,17.23
2022-11-03T01:34:48.086Z,16.20
2022-11-03T01:37:16.437Z,17.33
2022-11-03T01:39:44.815Z,10.80
2022-11-03T01:42:14.984Z,17.17
2022-11-03T01:44:47.680Z,18.47
2022-11-03T01:47:23.860Z,10.30
2022-11-03T01:49:55.561Z,10.67
2022-11-03T01:52:27.442Z,11.63
2022-11-03T01:55:02.375Z,13.93
2022-11-03T01:57:37.304Z,12.10
2022-11-03T02:00:07.608Z,13.43
2022-11-03T02:02:42.303Z,16.57
2022-11-03T02:05:12.801Z,12.90
2022-11-03T02:07:45.478Z,19.00
2022-11-03T02:10:14.246Z,9.37
2022-11-03T02:12:45.552Z,11.70
2022-11-03T02:15:17.405Z,11.67
2022-11-03T02:17:48.702Z,16.00
2022-11-03T02:20:20.948Z,15.93
2022-11-03T02:23:27.374Z,16.90
2022-11-03T02:25:59.377Z,15.13
2022-11-03T02:28:30.566Z,12.37
2022-11-03T02:31:09.585Z,12.83
2022-11-03T02:33:48.467Z,18.93
2022-11-03T02:36:24.309Z,7.40
2022-11-03T02:38:59.394Z,12.83
2022-11-03T02:41:31.755Z,11.23
2022-11-03T02:44:02.816Z,17.33
2022-11-03T02:46:33.960Z,11.10
2022-11-03T02:49:02.839Z,15.33
2022-11-03T02:51:31.940Z,9.67
2022-11-03T02:54:07.453Z,10.63
2022-11-03T02:56:44.682Z,10.93
2022-11-03T02:59:17.788Z,19.03
2022-11-03T03:01:52.895Z,9.53
2022-11-03T03:04:27.202Z,19.87
2022-11-03T03:07:03.020Z,12.10
2022-11-03T03:09:36.555Z,13.10
2022-11-03T03:12:09.799Z,18.73
2022-11-03T03:14:41.330Z,16.47
2022-11-03T03:17:15.735Z,17.67
2022-11-03T03:19:52.093Z,17.70
2022-11-03T03:22:25.875Z,17.10
2022-11-03T03:25:01.108Z,13.60
2022-11-03T03:27:35.280Z,13.23
2022-11-03T03:30:07.697Z,18.33
2022-11-03T03:32:40.886Z,11.83
2022-11-03T03:35:14.309Z,10.57
2022-11-03T03:37:46.757Z,14.17
2022-11-03T03:40:21.327Z,12.10
2022-11-03T03:42:52.832Z,16.23
2022-11-03T03:45:22.571Z,12.33
2022-11-03T03:47:56.387Z,10.00
2022-11-03T03:50:28.345Z,10.57
2022-11-03T03:52:59.558Z,10.67
2022-11-03T03:55:35.887Z,13.10
2022-11-03T03:58:07.544Z,10.37
2022-11-03T04:00:40.172Z,8.57
2022-11-03T04:03:16.109Z,18.27
2022-11-03T04:05:44.740Z,13.30
2022-11-03T04:08:13.801Z,11.97
2022-11-03T04:11:02.231Z,10.97
2022-11-03T04:13:54.769Z,14.67
2022-11-03T04:16:40.732Z,11.27
2022-11-03T04:19:26.213Z,12.23
2022-11-03T04:22:12.171Z,15.87
2022-11-03T04:24:40.784Z,13.17
2022-11-03T04:27:27.136Z,12.13
2022-11-03T04:29:59.663Z,14.43
2022-11-03T04:32:28.182Z,15.57
2022-11-03T04:34:56.814Z,10.47
2022-11-03T04:37:28.793Z,10.73
2022-11-03T04:40:01.693Z,10.97
2022-11-03T04:42:34.437Z,14.10
2022-11-03T04:45:16.100Z,11.50
2022-11-03T04:47:45.058Z,20.77
2022-11-03T04:50:18.746Z,16.63
2022-11-03T04:52:48.120Z,13.03
2022-11-03T04:55:18.549Z,18.13
2022-11-03T04:57:47.604Z,18.97
2022-11-03T05:00:20.249Z,18.17
2022-11-03T05:02:54.710Z,15.13
2022-11-03T05:05:26.234Z,13.43
2022-11-03T05:07:56.723Z,16.33
2022-11-03T05:10:27.539Z,12.33
2022-11-03T05:12:56.927Z,15.00
2022-11-03T05:15:36.242Z,15.43
2022-11-03T05:18:17.293Z,17.23
2022-11-03T05:20:50.998Z,9.27
2022-11-03T05:23:20.826Z,17.13
2022-11-03T05:25:51.971Z,15.23
2022-11-03T05:28:27.535Z,17.50
2022-11-03T05:30:58.051Z,10.93
2022-11-03T05:33:33.127Z,16.73
2022-11-03T05:36:07.342Z,17.00
2022-11-03T05:38:36.295Z,11.43
2022-11-03T05:41:07.072Z,13.10
2022-11-03T05:43:38.201Z,13.07
2022-11-03T05:46:12.479Z,12.00
2022-11-03T05:48:45.060Z,13.87
2022-11-03T05:51:20.140Z,15.50
2022-11-03T05:53:52.357Z,14.83
2022-11-03T05:56:23.473Z,10.03
2022-11-03T05:58:53.288Z,15.20
2022-11-03T06:01:27.433Z,13.67
2022-11-03T06:03:55.836Z,16.30
2022-11-03T06:06:32.265Z,13.97
2022-11-03T06:09:04.136Z,10.73
2022-11-03T06:11:36.636Z,12.53
2022-11-03T06:14:18.682Z,22.60
2022-11-03T06:16:57.541Z,13.40
2022-11-03T06:19:32.676Z,9.17
2022-11-03T06:22:07.711Z,10.90
2022-11-03T06:24:36.472Z,13.77
2022-11-03T06:27:05.255Z,14.73
2022-11-03T06:29:35.164Z,13.73
2022-11-03T06:32:05.203Z,13.93
2022-11-03T06:34:38.987Z,17.40
2022-11-03T06:37:20.718Z,14.43
2022-11-03T06:39:50.218Z,11.17
2022-11-03T06:42:23.157Z,17.03
2022-11-03T06:44:53.101Z,16.13
2022-11-03T06:47:25.028Z,18.83
2022-11-03T06:49:55.949Z,14.53
2022-11-03T06:52:28.047Z,20.40
2022-11-03T06:55:02.007Z,13.53
2022-11-03T06:57:36.437Z,14.10
2022-11-03T07:00:34.836Z,18.47
2022-11-03T07:03:10.416Z,13.80
2022-11-03T07:05:40.616Z,16.67
2022-11-03T07:08:21.114Z,17.03
2022-11-03T07:10:52.026Z,23.80
2022-11-03T07:13:25.964Z,15.00
2022-11-03T07:15:56.617Z,16.33
2022-11-03T07:18:30.734Z,16.63
2022-11-03T07:21:00.274Z,19.90
2022-11-03T07:23:32.005Z,14.97
2022-11-03T07:26:02.522Z,16.17
2022-11-03T07:28:36.589Z,13.97
2022-11-03T07:31:16.601Z,20.37
2022-11-03T07:33:47.256Z,12.00
2022-11-03T07:36:21.328Z,14.77
2022-11-03T07:38:53.972Z,13.67
2022-11-03T07:41:29.547Z,14.00
2022-11-03T07:44:03.282Z,17.80
2022-11-03T07:46:32.320Z,10.23
2022-11-03T07:49:04.601Z,15.10
2022-11-03T07:51:34.961Z,14.00
2022-11-03T07:54:11.006Z,15.43
2022-11-03T07:56:43.253Z,10.47
2022-11-03T07:59:17.650Z,19.43
2022-11-03T08:01:49.404Z,13.03
2022-11-03T08:04:24.536Z,15.17
2022-11-03T08:06:54.059Z,15.60
2022-11-03T08:09:22.881Z,16.67
2022-11-03T08:11:52.617Z,11.90
2022-11-03T08:14:21.220Z,15.33
2022-11-03T08:16:49.867Z,10.43
2022-11-03T08:19:20.068Z,11.70
2022-11-03T08:21:48.597Z,15.93
2022-11-03T08:24:17.331Z,14.70
2022-11-03T08:26:45.972Z,13.97
2022-11-03T08:29:17.704Z,11.20
2022-11-03T08:31:46.449Z,15.27
2022-11-03T08:34:15.132Z,12.83
2022-11-03T08:36:45.049Z,12.07
2022-11-03T08:39:13.996Z,13.10
2022-11-03T08:41:42.848Z,13.20
2022-11-03T08:44:17.587Z,17.13
2022-11-03T08:46:46.468Z,17.20
2022-11-03T08:49:15.683Z,17.70
2022-11-03T08:51:46.200Z,16.43
2022-11-03T08:54:14.825Z,17.90
2022-11-03T08:56:43.911Z,17.50
2022-11-03T08:59:12.829Z,11.80
2022-11-03T09:01:41.605Z,10.13
2022-11-03T09:04:13.434Z,14.13
2022-11-03T09:06:42.383Z,14.97
2022-11-03T09:12:07.474Z,16.60
2022-11-03T09:14:36.415Z,11.97
2022-11-03T09:17:05.042Z,10.10
2022-11-03T09:19:34.141Z,13.97
2022-11-03T09:22:03.394Z,15.43
2022-11-03T09:24:35.800Z,15.73
2022-11-03T09:27:13.418Z,15.60
2022-11-03T09:30:10.963Z,10.93
2022-11-03T09:32:30.838Z,12.23
2022-11-03T09:34:59.518Z,11.00
2022-11-03T09:37:28.797Z,8.33
2022-11-03T09:40:01.429Z,9.40
2022-11-03T09:42:30.439Z,14.73
2022-11-03T09:44:59.074Z,10.67
2022-11-03T09:47:30.936Z,13.50
2022-11-03T09:50:00.001Z,8.07
2022-11-03T09:52:28.983Z,11.27
2022-11-03T09:54:58.065Z,7.60
2022-11-03T09:57:29.775Z,12.50
2022-11-03T09:59:58.755Z,8.03
2022-11-03T10:02:31.016Z,10.03
2022-11-03T10:05:04.271Z,10.27
2022-11-03T10:07:35.454Z,9.90
2022-11-03T10:10:04.324Z,8.97
2022-11-03T10:12:38.889Z,9.83
2022-11-03T10:15:15.659Z,9.43
2022-11-03T10:17:45.935Z,10.77
2022-11-03T10:20:16.224Z,9.27
2022-11-03T10:22:47.152Z,8.67
2022-11-03T10:25:37.412Z,5.73
2022-11-03T10:28:16.480Z,14.67
2022-11-03T10:33:52.180Z,11.17
2022-11-03T10:36:26.488Z,10.33
2022-11-03T10:38:56.171Z,14.23
2022-11-03T10:41:26.453Z,10.47
2022-11-03T10:44:04.749Z,12.37
2022-11-03T10:46:49.687Z,9.67
2022-11-03T10:49:20.901Z,8.67
2022-11-03T10:51:52.334Z,10.47
2022-11-03T10:54:23.596Z,15.87
2022-11-03T10:56:53.294Z,12.77
2022-11-03T10:59:31.839Z,12.33
2022-11-03T11:02:01.288Z,15.67
2022-11-03T11:04:30.250Z,12.67
2022-11-03T11:06:59.167Z,12.97
2022-11-03T11:09:30.167Z,13.13
2022-11-03T11:12:06.374Z,13.53
2022-11-03T11:14:52.310Z,13.57
2022-11-03T11:17:44.412Z,23.60
2022-11-03T11:20:31.005Z,14.63
2022-11-03T11:23:32.700Z,14.50
2022-11-03T11:26:15.038Z,13.17
2022-11-03T11:28:46.017Z,14.93
2022-11-03T11:31:34.960Z,14.40
2022-11-03T11:34:41.426Z,21.33
2022-11-03T11:37:34.194Z,18.07
2022-11-03T11:40:03.934Z,10.63
2022-11-03T11:42:34.989Z,11.07
2022-11-03T11:45:07.137Z,10.60
2022-11-03T11:47:45.229Z,13.23
2022-11-03T11:50:25.215Z,7.63
2022-11-03T11:52:59.286Z,10.13
2022-11-03T11:55:33.986Z,10.07
2022-11-03T11:58:04.569Z,10.83
2022-11-03T12:00:35.950Z,10.97
2022-11-03T12:03:07.806Z,21.43
2022-11-03T12:05:37.389Z,8.90
2022-11-03T12:08:19.867Z,8.70
2022-11-03T12:10:55.272Z,10.07
2022-11-03T12:13:52.815Z,14.57
2022-11-03T12:16:33.072Z,8.80
2022-11-03T12:19:42.293Z,7.30
2022-11-03T12:22:13.306Z,11.80
2022-11-03T12:24:52.846Z,10.20
2022-11-03T12:27:42.799Z,9.27
2022-11-03T12:30:17.740Z,10.93
2022-11-03T12:32:47.438Z,14.27
2022-11-03T12:35:18.102Z,16.30
2022-11-03T12:37:47.390Z,15.20
2022-11-03T12:40:16.083Z,12.43
2022-11-03T12:42:44.793Z,13.57
2022-11-03T12:45:14.609Z,11.83
2022-11-03T12:47:43.077Z,12.03
2022-11-03T12:50:12.406Z,5.53
2022-11-03T12:52:42.365Z,17.23
2022-11-03T12:55:11.752Z,11.67
2022-11-03T12:57:40.489Z,9.33
2022-11-03T13:00:10.528Z,11.13
2022-11-03T13:02:39.541Z,7.83
2022-11-03T13:05:09.581Z,22.87
2022-11-03T13:07:38.553Z,12.90
2022-11-03T13:10:09.818Z,11.10
2022-11-03T13:12:41.563Z,10.33
2022-11-03T13:15:13.765Z,10.87
2022-11-03T13:20:30.985Z,19.27
2022-11-03T13:22:59.726Z,20.03
2022-11-03T13:25:29.922Z,22.50
2022-11-03T13:27:58.976Z,17.30
2022-11-03T13:30:28.584Z,12.73
2022-11-03T13:32:57.686Z,16.70
2022-11-03T13:35:26.422Z,12.33
2022-11-03T13:37:55.073Z,16.33
2022-11-03T13:43:13.777Z,9.33
2022-11-03T13:45:42.323Z,9.00
2022-11-03T13:51:00.562Z,11.13
2022-11-03T13:56:21.752Z,6.33
2022-11-03T14:01:41.914Z,7.33
2022-11-03T14:07:01.215Z,9.70
2022-11-03T14:09:30.212Z,9.83
2022-11-03T14:12:16.434Z,7.60
2022-11-03T14:14:46.576Z,9.20
2022-11-03T14:17:15.471Z,9.23
2022-11-03T14:19:50.228Z,6.77
2022-11-03T14:22:21.169Z,10.67
2022-11-03T14:24:50.062Z,10.67
2022-11-03T14:27:19.602Z,14.00
2022-11-03T14:29:50.594Z,8.93
2022-11-03T14:32:19.862Z,5.50
2022-11-03T14:34:49.129Z,14.80
2022-11-03T14:37:18.044Z,9.90
2022-11-03T14:39:46.695Z,11.40
2022-11-03T14:42:15.804Z,6.43
2022-11-03T14:44:46.066Z,10.27
2022-11-03T14:47:18.878Z,9.77
2022-11-03T14:49:48.462Z,9.20
2022-11-03T14:52:17.765Z,12.17
2022-11-03T14:54:46.411Z,13.63
2022-11-03T14:57:14.904Z,9.63
2022-11-03T14:59:43.380Z,10.30
2022-11-03T15:02:12.219Z,12.37
2022-11-03T15:04:42.252Z,10.50
2022-11-03T15:07:10.903Z,10.67
2022-11-03T15:09:39.556Z,13.93
2022-11-03T15:12:08.534Z,14.17
2022-11-03T15:14:37.374Z,8.27
2022-11-03T15:17:05.955Z,7.07
2022-11-03T15:19:34.660Z,12.40
2022-11-03T15:22:04.593Z,9.13
2022-11-03T15:27:21.905Z,7.97
2022-11-03T15:29:50.651Z,12.50
2022-11-03T15:32:19.941Z,10.90
2022-11-03T15:34:48.814Z,14.23
2022-11-03T15:37:19.137Z,9.90
2022-11-03T15:39:47.677Z,11.90
2022-11-03T15:42:16.315Z,11.73
2022-11-03T15:44:44.729Z,13.40
2022-11-03T15:47:13.038Z,9.30
2022-11-03T15:49:41.735Z,14.37
2022-11-03T15:52:10.405Z,15.40
2022-11-03T15:54:42.646Z,15.53
2022-11-03T15:57:11.396Z,10.40
2022-11-03T15:59:40.258Z,9.10
2022-11-03T16:02:27.816Z,11.67
2022-11-03T16:04:57.917Z,13.13
2022-11-03T16:07:26.705Z,11.17
2022-11-03T16:09:57.165Z,16.20
2022-11-03T16:12:26.236Z,13.87
2022-11-03T16:14:55.149Z,11.20
2022-11-03T16:17:23.800Z,11.50
2022-11-03T16:19:52.457Z,10.97
2022-11-03T16:22:21.112Z,9.43
2022-11-03T16:24:49.771Z,12.23
2022-11-03T16:27:19.767Z,14.70
2022-11-03T16:29:48.262Z,15.63
2022-11-03T16:32:16.707Z,8.97
2022-11-03T16:34:45.701Z,14.13
2022-11-03T16:37:14.154Z,12.70
2022-11-03T16:39:43.271Z,11.50
2022-11-03T16:42:12.040Z,13.27
2022-11-03T16:44:41.979Z,16.43
2022-11-03T16:47:10.905Z,16.17
2022-11-03T16:49:41.908Z,13.70
2022-11-03T16:52:10.966Z,12.63
2022-11-03T16:54:39.494Z,13.97
2022-11-03T16:57:08.078Z,10.63
2022-11-03T16:59:36.763Z,13.53
2022-11-03T17:02:10.851Z,13.87
2022-11-03T17:04:42.137Z,12.17
2022-11-03T17:07:10.806Z,10.80
2022-11-03T17:09:39.302Z,12.00
2022-11-03T17:12:08.286Z,13.07
2022-11-03T17:14:37.360Z,11.97
2022-11-03T17:17:07.569Z,13.30
2022-11-03T17:19:36.385Z,12.10
2022-11-03T17:22:05.046Z,14.10
2022-11-03T17:24:33.781Z,16.60
2022-11-03T17:27:05.491Z,12.93
2022-11-03T17:29:36.658Z,13.80
2022-11-03T17:32:09.731Z,10.40
2022-11-03T17:34:39.587Z,11.77
2022-11-03T17:37:08.204Z,15.97
2022-11-03T17:39:39.182Z,16.63
2022-11-03T17:42:18.744Z,14.43
2022-11-03T17:44:49.304Z,9.37
2022-11-03T17:47:20.771Z,10.20
2022-11-03T17:49:50.329Z,9.40
2022-11-03T17:52:25.083Z,10.50
2022-11-03T17:54:59.456Z,12.10
2022-11-03T17:57:30.199Z,10.33
2022-11-03T18:00:01.531Z,9.77
2022-11-03T18:02:35.412Z,7.80
2022-11-03T18:05:21.948Z,9.23
2022-11-03T18:07:51.438Z,11.87
2022-11-03T18:10:20.640Z,10.00
2022-11-03T18:13:09.349Z,10.50
2022-11-03T18:15:39.411Z,13.17
2022-11-03T18:18:17.968Z,9.43
2022-11-03T18:20:53.336Z,7.97
2022-11-03T18:23:25.043Z,9.17
2022-11-03T18:25:55.788Z,12.90
2022-11-03T18:28:24.860Z,8.37
2022-11-03T18:30:56.105Z,7.00
2022-11-03T18:33:28.982Z,9.83
2022-11-03T18:35:58.835Z,9.17
2022-11-03T18:38:27.968Z,7.87
2022-11-03T18:40:56.657Z,7.43
2022-11-03T18:43:28.063Z,7.07
2022-11-03T18:45:56.725Z,8.13
2022-11-03T18:48:27.341Z,7.37
2022-11-03T18:50:57.655Z,7.60
2022-11-03T18:53:27.711Z,7.13
2022-11-03T18:56:01.317Z,9.53
2022-11-03T18:58:30.292Z,7.43
2022-11-03T19:00:59.264Z,4.97
2022-11-03T19:03:29.589Z,9.43
2022-11-03T19:05:58.660Z,9.67
2022-11-03T19:08:30.661Z,6.77
2022-11-03T19:11:04.068Z,10.70
2022-11-03T19:13:37.745Z,5.03
2022-11-03T19:16:14.504Z,6.40
2022-11-03T19:18:45.994Z,7.83
2022-11-03T19:21:16.261Z,8.63
2022-11-03T19:23:47.957Z,5.13
2022-11-03T19:26:23.739Z,4.73
2022-11-03T19:28:59.221Z,4.20
2022-11-03T19:31:32.866Z,4.13
2022-11-03T19:34:06.353Z,6.60
2022-11-03T19:36:35.113Z,3.93
2022-11-03T19:39:05.277Z,4.37
2022-11-03T19:41:51.792Z,4.03
2022-11-03T19:44:20.685Z,3.13
2022-11-03T19:46:51.384Z,4.43
2022-11-03T19:49:21.457Z,4.03
2022-11-03T19:51:50.104Z,4.03
2022-11-03T19:54:21.657Z,4.53
2022-11-03T19:56:50.331Z,3.30
2022-11-03T19:59:19.295Z,6.53
2022-11-03T20:01:48.135Z,4.97
2022-11-03T20:04:16.998Z,4.23
2022-11-03T20:06:47.519Z,4.30
2022-11-03T20:09:19.719Z,4.73
2022-11-03T20:11:48.676Z,4.13
2022-11-03T20:14:22.461Z,4.60
2022-11-03T20:16:51.074Z,3.50
2022-11-03T20:19:19.926Z,4.87
2022-11-03T20:21:50.339Z,7.23
2022-11-03T20:24:19.954Z,3.73
2022-11-03T20:26:48.563Z,2.83
2022-11-03T20:29:17.967Z,3.90
2022-11-03T20:31:53.513Z,5.77
2022-11-03T20:34:31.022Z,4.90
2022-11-03T20:37:05.587Z,5.83
2022-11-03T20:39:34.941Z,3.80
2022-11-03T20:42:03.793Z,5.57
2022-11-03T20:44:32.317Z,3.50
2022-11-03T20:47:01.020Z,3.77
2022-11-03T20:49:29.784Z,6.00
2022-11-03T20:51:58.643Z,6.00
2022-11-03T20:54:28.658Z,5.77
2022-11-03T20:56:57.614Z,7.60
2022-11-03T20:59:26.925Z,3.80
2022-11-03T21:01:55.795Z,6.47
2022-11-03T21:04:25.243Z,4.90
2022-11-03T21:06:55.100Z,5.63
2022-11-03T21:09:24.058Z,7.17
2022-11-03T21:11:55.090Z,6.50
2022-11-03T21:14:26.722Z,5.73
2022-11-03T21:17:13.050Z,6.07
2022-11-03T21:19:59.617Z,5.27
2022-11-03T21:25:25.298Z,6.50
2022-11-03T21:27:56.336Z,6.97
2022-11-03T21:30:25.222Z,6.53
2022-11-03T21:32:54.081Z,9.37
2022-11-03T21:35:23.739Z,5.93
2022-11-03T21:37:52.910Z,7.73
2022-11-03T21:40:21.649Z,8.03
2022-11-03T21:43:07.792Z,4.77
2022-11-03T21:45:38.150Z,9.13
2022-11-03T21:48:25.031Z,7.13
2022-11-03T21:50:56.522Z,5.10
2022-11-03T21:53:25.415Z,5.77
2022-11-03T21:55:54.315Z,6.87
2022-11-03T21:58:22.880Z,8.80
2022-11-03T22:00:53.366Z,5.00
2022-11-03T22:03:22.555Z,6.63
2022-11-03T22:05:51.722Z,8.60
2022-11-03T22:08:20.247Z,6.03
2022-11-03T22:10:48.910Z,6.43
2022-11-03T22:13:17.627Z,5.53
2022-11-03T22:16:03.970Z,4.37
2022-11-03T22:18:34.574Z,4.10
2022-11-03T22:21:20.598Z,2.97
2022-11-03T22:24:09.041Z,3.50
2022-11-03T22:26:55.501Z,6.57
2022-11-03T22:29:41.687Z,3.13
2022-11-03T22:32:15.338Z,6.47
2022-11-03T22:35:03.360Z,3.93
2022-11-03T22:40:17.506Z,3.47
2022-11-03T22:43:04.030Z,3.40
2022-11-03T22:45:50.356Z,4.43
2022-11-03T22:48:23.549Z,4.43
2022-11-03T22:51:06.162Z,4.97
2022-11-03T22:53:53.849Z,3.47
2022-11-03T22:56:25.882Z,2.47
2022-11-03T22:58:55.406Z,2.93
2022-11-03T23:01:28.231Z,5.50
2022-11-03T23:03:57.189Z,5.73
2022-11-03T23:06:29.148Z,3.40
2022-11-03T23:08:58.556Z,5.40
2022-11-03T23:11:31.134Z,3.30
2022-11-03T23:14:01.153Z,5.87
2022-11-03T23:16:31.453Z,3.67
2022-11-03T23:19:18.261Z,4.73
2022-11-03T23:21:50.152Z,2.73
2022-11-03T23:24:32.675Z,5.00
2022-11-03T23:27:01.461Z,2.27
2022-11-03T23:29:30.992Z,2.30
2022-11-03T23:32:00.273Z,4.60
2022-11-03T23:34:29.323Z,4.60
2022-11-03T23:36:59.921Z,3.80
2022-11-03T23:39:28.549Z,5.03
2022-11-03T23:41:56.998Z,3.53
2022-11-03T23:44:25.807Z,4.43
2022-11-03T23:47:12.432Z,3.37
2022-11-03T23:49:41.235Z,3.80
2022-11-03T23:52:11.406Z,3.87
2022-11-03T23:54:40.048Z,2.77
2022-11-03T23:57:29.018Z,5.07
2022-11-03T23:59:57.578Z,5.63
